sensor_id;sensor_type;location;lat;lon;timestamp;pressure;altitude;pressure_sealevel;temperature;humidity
16595;BME280;8410;52.532;13.336;2023-04-19T00:02:17;102332.41;;;6.98;74.03
16595;BME280;8410;52.532;13.336;2023-04-19T00:04:45;102328.41;;;7.19;73.45
16595;BME280;8410;52.532;13.336;2023-04-19T00:07:13;102332.25;;;7.11;73.71
16595;BME280;8410;52.532;13.336;2023-04-19T00:09:42;102322.06;;;7.13;72.95
16595;BME280;8410;52.532;13.336;2023-04-19T00:12:09;102336.41;;;7.09;72.78
16595;BME280;8410;52.532;13.336;2023-04-19T00:14:38;102331.75;;;7.18;72.22
16595;BME280;8410;52.532;13.336;2023-04-19T00:17:05;102325.66;;;7.33;71.63
16595;BME280;8410;52.532;13.336;2023-04-19T00:19:33;102326.78;;;7.21;71.89
16595;BME280;8410;52.532;13.336;2023-04-19T00:22:01;102320.28;;;7.44;70.33
16595;BME280;8410;52.532;13.336;2023-04-19T00:24:28;102316.84;;;7.44;70.01
16595;BME280;8410;52.532;13.336;2023-04-19T00:26:55;102319.47;;;7.29;69.47
16595;BME280;8410;52.532;13.336;2023-04-19T00:29:24;102317.78;;;7.46;69.81
16595;BME280;8410;52.532;13.336;2023-04-19T00:31:52;102322.72;;;7.25;69.01
16595;BME280;8410;52.532;13.336;2023-04-19T00:34:20;102318.31;;;7.22;69.83
16595;BME280;8410;52.532;13.336;2023-04-19T00:36:47;102321.03;;;7.09;69.12
16595;BME280;8410;52.532;13.336;2023-04-19T00:39:15;102320.53;;;7.00;69.90
16595;BME280;8410;52.532;13.336;2023-04-19T00:41:42;102326.94;;;7.08;69.54
16595;BME280;8410;52.532;13.336;2023-04-19T00:44:10;102308.84;;;7.05;69.47
16595;BME280;8410;52.532;13.336;2023-04-19T00:46:38;102311.59;;;7.24;68.85
16595;BME280;8410;52.532;13.336;2023-04-19T00:49:07;102330.97;;;7.19;69.32
16595;BME280;8410;52.532;13.336;2023-04-19T00:51:35;102324.63;;;6.80;69.81
16595;BME280;8410;52.532;13.336;2023-04-19T00:54:03;102317.66;;;6.77;70.08
16595;BME280;8410;52.532;13.336;2023-04-19T00:56:33;102317.03;;;6.98;70.26
16595;BME280;8410;52.532;13.336;2023-04-19T00:59:01;102315.91;;;6.76;70.41
16595;BME280;8410;52.532;13.336;2023-04-19T01:01:28;102319.91;;;6.88;70.61
16595;BME280;8410;52.532;13.336;2023-04-19T01:03:56;102316.69;;;6.92;70.02
16595;BME280;8410;52.532;13.336;2023-04-19T01:06:25;102311.88;;;6.81;70.34
16595;BME280;8410;52.532;13.336;2023-04-19T01:08:53;102311.56;;;7.08;70.12
16595;BME280;8410;52.532;13.336;2023-04-19T01:11:21;102315.91;;;6.76;69.36
16595;BME280;8410;52.532;13.336;2023-04-19T01:13:49;102321.78;;;6.59;70.25
16595;BME280;8410;52.532;13.336;2023-04-19T01:16:16;102321.31;;;6.50;70.12
16595;BME280;8410;52.532;13.336;2023-04-19T01:18:44;102316.94;;;6.80;68.90
16595;BME280;8410;52.532;13.336;2023-04-19T01:21:11;102314.28;;;6.78;70.10
16595;BME280;8410;52.532;13.336;2023-04-19T01:23:40;102310.53;;;6.55;70.34
16595;BME280;8410;52.532;13.336;2023-04-19T01:26:08;102313.84;;;6.54;69.88
16595;BME280;8410;52.532;13.336;2023-04-19T01:28:35;102301.34;;;6.44;70.61
16595;BME280;8410;52.532;13.336;2023-04-19T01:31:02;102311.97;;;6.83;69.95
16595;BME280;8410;52.532;13.336;2023-04-19T01:33:30;102312.38;;;6.74;69.26
16595;BME280;8410;52.532;13.336;2023-04-19T01:35:57;102304.44;;;6.53;69.45
16595;BME280;8410;52.532;13.336;2023-04-19T01:38:25;102300.66;;;6.47;70.35
16595;BME280;8410;52.532;13.336;2023-04-19T01:40:54;102313.91;;;6.39;70.30
16595;BME280;8410;52.532;13.336;2023-04-19T01:43:22;102301.34;;;6.44;70.15
16595;BME280;8410;52.532;13.336;2023-04-19T01:45:50;102305.03;;;6.49;69.87
16595;BME280;8410;52.532;13.336;2023-04-19T01:48:17;102308.81;;;6.39;70.58
16595;BME280;8410;52.532;13.336;2023-04-19T01:50:45;102305.94;;;6.50;70.69
16595;BME280;8410;52.532;13.336;2023-04-19T01:53:12;102302.81;;;6.39;70.76
16595;BME280;8410;52.532;13.336;2023-04-19T01:55:40;102300.47;;;6.44;70.97
16595;BME280;8410;52.532;13.336;2023-04-19T01:58:08;102302.22;;;6.28;71.16
16595;BME280;8410;52.532;13.336;2023-04-19T02:00:36;102296.47;;;6.32;71.15
16595;BME280;8410;52.532;13.336;2023-04-19T02:03:03;102294.34;;;6.25;71.28
16595;BME280;8410;52.532;13.336;2023-04-19T02:05:31;102301.59;;;6.32;71.04
16595;BME280;8410;52.532;13.336;2023-04-19T02:07:59;102301.41;;;6.29;71.36
16595;BME280;8410;52.532;13.336;2023-04-19T02:10:27;102298.94;;;6.00;72.55
16595;BME280;8410;52.532;13.336;2023-04-19T02:12:54;102304.53;;;6.09;71.94
16595;BME280;8410;52.532;13.336;2023-04-19T02:15:23;102299.25;;;5.91;72.58
16595;BME280;8410;52.532;13.336;2023-04-19T02:17:50;102282.53;;;6.27;71.82
16595;BME280;8410;52.532;13.336;2023-04-19T02:20:18;102290.00;;;6.08;72.21
16595;BME280;8410;52.532;13.336;2023-04-19T02:22:45;102286.22;;;6.32;71.12
16595;BME280;8410;52.532;13.336;2023-04-19T02:25:13;102284.53;;;6.97;71.00
16595;BME280;8410;52.532;13.336;2023-04-19T02:27:41;102291.75;;;6.09;71.62
16595;BME280;8410;52.532;13.336;2023-04-19T02:30:09;102276.97;;;6.34;71.33
16595;BME280;8410;52.532;13.336;2023-04-19T02:32:38;102287.56;;;5.94;72.85
16595;BME280;8410;52.532;13.336;2023-04-19T02:35:07;102285.06;;;5.81;73.39
16595;BME280;8410;52.532;13.336;2023-04-19T02:37:34;102279.63;;;6.05;72.82
16595;BME280;8410;52.532;13.336;2023-04-19T02:40:02;102275.34;;;5.90;73.28
16595;BME280;8410;52.532;13.336;2023-04-19T02:42:30;102272.16;;;6.24;72.15
16595;BME280;8410;52.532;13.336;2023-04-19T02:44:58;102266.31;;;6.27;72.86
16595;BME280;8410;52.532;13.336;2023-04-19T02:47:25;102276.59;;;5.82;73.72
16595;BME280;8410;52.532;13.336;2023-04-19T02:49:54;102264.63;;;5.66;74.92
16595;BME280;8410;52.532;13.336;2023-04-19T02:52:21;102271.16;;;5.91;74.44
16595;BME280;8410;52.532;13.336;2023-04-19T02:54:48;102268.19;;;5.53;75.76
16595;BME280;8410;52.532;13.336;2023-04-19T02:57:16;102270.91;;;5.57;75.37
16595;BME280;8410;52.532;13.336;2023-04-19T02:59:43;102265.66;;;5.85;74.55
16595;BME280;8410;52.532;13.336;2023-04-19T03:02:11;102262.53;;;5.59;76.36
16595;BME280;8410;52.532;13.336;2023-04-19T03:04:38;102251.53;;;6.21;74.92
16595;BME280;8410;52.532;13.336;2023-04-19T03:07:08;102255.38;;;5.83;74.89
16595;BME280;8410;52.532;13.336;2023-04-19T03:09:36;102245.47;;;6.35;74.15
16595;BME280;8410;52.532;13.336;2023-04-19T03:12:04;102252.81;;;5.83;75.37
16595;BME280;8410;52.532;13.336;2023-04-19T03:14:31;102246.88;;;6.14;75.59
16595;BME280;8410;52.532;13.336;2023-04-19T03:17:00;102243.50;;;5.69;76.27
16595;BME280;8410;52.532;13.336;2023-04-19T03:19:27;102232.34;;;6.13;75.89
16595;BME280;8410;52.532;13.336;2023-04-19T03:21:55;102236.19;;;6.21;75.32
16595;BME280;8410;52.532;13.336;2023-04-19T03:24:27;102232.06;;;6.39;74.92
16595;BME280;8410;52.532;13.336;2023-04-19T03:26:55;102228.31;;;6.02;76.02
16595;BME280;8410;52.532;13.336;2023-04-19T03:29:23;102231.91;;;5.90;77.46
16595;BME280;8410;52.532;13.336;2023-04-19T03:31:50;102226.31;;;5.66;77.96
16595;BME280;8410;52.532;13.336;2023-04-19T03:34:18;102228.69;;;5.63;77.91
16595;BME280;8410;52.532;13.336;2023-04-19T03:36:45;102226.72;;;5.89;77.45
16595;BME280;8410;52.532;13.336;2023-04-19T03:39:13;102229.00;;;6.47;75.68
16595;BME280;8410;52.532;13.336;2023-04-19T03:41:41;102218.53;;;5.94;76.80
16595;BME280;8410;52.532;13.336;2023-04-19T03:44:09;102215.88;;;5.32;79.74
16595;BME280;8410;52.532;13.336;2023-04-19T03:46:36;102213.72;;;5.10;80.89
16595;BME280;8410;52.532;13.336;2023-04-19T03:49:04;102216.91;;;5.50;80.99
16595;BME280;8410;52.532;13.336;2023-04-19T03:51:31;102216.91;;;5.50;79.58
16595;BME280;8410;52.532;13.336;2023-04-19T03:53:59;102216.81;;;5.34;81.31
16595;BME280;8410;52.532;13.336;2023-04-19T03:56:26;102220.09;;;5.46;80.77
16595;BME280;8410;52.532;13.336;2023-04-19T03:58:55;102213.59;;;5.22;82.06
16595;BME280;8410;52.532;13.336;2023-04-19T04:01:23;102214.56;;;4.81;83.33
16595;BME280;8410;52.532;13.336;2023-04-19T04:03:50;102218.09;;;4.83;83.10
16595;BME280;8410;52.532;13.336;2023-04-19T04:06:18;102213.84;;;5.12;83.76
16595;BME280;8410;52.532;13.336;2023-04-19T04:08:46;102215.34;;;5.08;82.87
16595;BME280;8410;52.532;13.336;2023-04-19T04:11:13;102213.97;;;4.85;83.57
16595;BME280;8410;52.532;13.336;2023-04-19T04:13:40;102204.78;;;5.17;83.81
16595;BME280;8410;52.532;13.336;2023-04-19T04:16:09;102211.25;;;4.82;85.15
16595;BME280;8410;52.532;13.336;2023-04-19T04:18:37;102208.56;;;4.66;85.89
16595;BME280;8410;52.532;13.336;2023-04-19T04:21:04;102211.06;;;4.79;86.39
16595;BME280;8410;52.532;13.336;2023-04-19T04:23:32;102201.41;;;4.88;85.81
16595;BME280;8410;52.532;13.336;2023-04-19T04:26:00;102196.00;;;4.83;86.79
16595;BME280;8410;52.532;13.336;2023-04-19T04:28:30;102207.13;;;4.84;86.61
16595;BME280;8410;52.532;13.336;2023-04-19T04:30:58;102203.78;;;4.85;86.77
16595;BME280;8410;52.532;13.336;2023-04-19T04:33:27;102205.44;;;4.99;87.67
16595;BME280;8410;52.532;13.336;2023-04-19T04:35:55;102190.50;;;5.35;86.18
16595;BME280;8410;52.532;13.336;2023-04-19T04:38:23;102195.75;;;5.53;86.30
16595;BME280;8410;52.532;13.336;2023-04-19T04:40:51;102185.41;;;5.35;85.33
16595;BME280;8410;52.532;13.336;2023-04-19T04:43:20;102188.91;;;5.52;85.09
16595;BME280;8410;52.532;13.336;2023-04-19T04:45:48;102183.84;;;5.68;85.22
16595;BME280;8410;52.532;13.336;2023-04-19T04:48:16;102184.69;;;5.23;86.18
16595;BME280;8410;52.532;13.336;2023-04-19T04:50:45;102193.31;;;5.55;85.60
16595;BME280;8410;52.532;13.336;2023-04-19T04:53:12;102179.75;;;5.87;84.74
16595;BME280;8410;52.532;13.336;2023-04-19T04:55:40;102190.47;;;5.65;85.31
16595;BME280;8410;52.532;13.336;2023-04-19T04:58:07;102190.91;;;5.58;85.20
16595;BME280;8410;52.532;13.336;2023-04-19T05:00:35;102183.13;;;5.71;85.89
16595;BME280;8410;52.532;13.336;2023-04-19T05:03:02;102182.28;;;7.00;81.27
16595;BME280;8410;52.532;13.336;2023-04-19T05:05:30;102188.84;;;5.96;82.81
16595;BME280;8410;52.532;13.336;2023-04-19T05:07:59;102190.06;;;5.27;86.24
16595;BME280;8410;52.532;13.336;2023-04-19T05:10:26;102184.09;;;5.73;84.47
16595;BME280;8410;52.532;13.336;2023-04-19T05:12:54;102175.41;;;5.55;85.96
16595;BME280;8410;52.532;13.336;2023-04-19T05:15:22;102175.25;;;5.97;84.71
16595;BME280;8410;52.532;13.336;2023-04-19T05:17:49;102172.25;;;6.05;83.64
16595;BME280;8410;52.532;13.336;2023-04-19T05:20:17;102168.06;;;6.89;80.86
16595;BME280;8410;52.532;13.336;2023-04-19T05:22:44;102169.84;;;6.90;80.21
16595;BME280;8410;52.532;13.336;2023-04-19T05:25:13;102163.25;;;6.95;82.68
16595;BME280;8410;52.532;13.336;2023-04-19T05:27:40;102168.44;;;6.96;79.47
16595;BME280;8410;52.532;13.336;2023-04-19T05:30:08;102160.97;;;6.67;82.94
16595;BME280;8410;52.532;13.336;2023-04-19T05:32:36;102155.03;;;8.09;77.98
16595;BME280;8410;52.532;13.336;2023-04-19T05:35:04;102149.34;;;8.94;72.81
16595;BME280;8410;52.532;13.336;2023-04-19T05:37:32;102145.19;;;8.38;74.14
16595;BME280;8410;52.532;13.336;2023-04-19T05:39:59;102144.34;;;8.57;74.07
16595;BME280;8410;52.532;13.336;2023-04-19T05:42:32;102170.59;;;8.32;73.94
16595;BME280;8410;52.532;13.336;2023-04-19T05:44:59;102140.03;;;7.44;78.27
16595;BME280;8410;52.532;13.336;2023-04-19T05:47:29;102125.56;;;8.79;75.16
16595;BME280;8410;52.532;13.336;2023-04-19T05:49:57;102143.59;;;8.59;74.13
16595;BME280;8410;52.532;13.336;2023-04-19T05:52:24;102131.56;;;10.10;69.89
16595;BME280;8410;52.532;13.336;2023-04-19T05:54:52;102139.81;;;9.56;69.91
16595;BME280;8410;52.532;13.336;2023-04-19T05:57:19;102128.34;;;9.04;73.19
16595;BME280;8410;52.532;13.336;2023-04-19T05:59:48;102129.25;;;9.48;71.17
16595;BME280;8410;52.532;13.336;2023-04-19T06:02:16;102123.09;;;11.12;66.27
16595;BME280;8410;52.532;13.336;2023-04-19T06:04:43;102134.88;;;9.38;68.69
16595;BME280;8410;52.532;13.336;2023-04-19T06:07:11;102150.47;;;8.22;74.62
16595;BME280;8410;52.532;13.336;2023-04-19T06:09:56;102134.81;;;9.16;71.62
16595;BME280;8410;52.532;13.336;2023-04-19T06:12:24;102153.34;;;7.72;74.11
16595;BME280;8410;52.532;13.336;2023-04-19T06:14:53;102142.06;;;7.15;77.00
16595;BME280;8410;52.532;13.336;2023-04-19T06:17:20;102149.28;;;6.88;79.94
16595;BME280;8410;52.532;13.336;2023-04-19T06:19:50;102156.56;;;6.80;80.20
16595;BME280;8410;52.532;13.336;2023-04-19T06:22:18;102147.03;;;7.12;79.15
16595;BME280;8410;52.532;13.336;2023-04-19T06:24:46;102151.44;;;6.80;79.60
16595;BME280;8410;52.532;13.336;2023-04-19T06:27:15;102149.88;;;6.66;80.74
16595;BME280;8410;52.532;13.336;2023-04-19T06:29:42;102145.13;;;7.08;80.21
16595;BME280;8410;52.532;13.336;2023-04-19T06:32:11;102151.56;;;7.00;78.17
16595;BME280;8410;52.532;13.336;2023-04-19T06:34:39;102144.25;;;6.73;80.96
16595;BME280;8410;52.532;13.336;2023-04-19T06:37:06;102139.72;;;7.02;79.27
16595;BME280;8410;52.532;13.336;2023-04-19T06:39:34;102127.59;;;7.34;77.99
16595;BME280;8410;52.532;13.336;2023-04-19T06:42:01;102132.94;;;7.20;78.44
16595;BME280;8410;52.532;13.336;2023-04-19T06:44:29;102133.00;;;7.76;76.89
16595;BME280;8410;52.532;13.336;2023-04-19T06:46:56;102120.84;;;7.54;78.24
16595;BME280;8410;52.532;13.336;2023-04-19T06:49:25;102122.75;;;7.40;76.91
16595;BME280;8410;52.532;13.336;2023-04-19T06:51:52;102118.09;;;7.49;75.97
16595;BME280;8410;52.532;13.336;2023-04-19T06:54:20;102128.97;;;7.81;74.90
16595;BME280;8410;52.532;13.336;2023-04-19T06:56:48;102106.44;;;7.75;75.70
16595;BME280;8410;52.532;13.336;2023-04-19T06:59:18;102117.31;;;7.69;74.77
16595;BME280;8410;52.532;13.336;2023-04-19T07:01:46;102111.06;;;7.82;74.56
16595;BME280;8410;52.532;13.336;2023-04-19T07:04:14;102100.56;;;7.58;74.39
16595;BME280;8410;52.532;13.336;2023-04-19T07:06:47;102105.19;;;7.47;75.32
16595;BME280;8410;52.532;13.336;2023-04-19T07:09:15;102100.75;;;7.81;73.36
16595;BME280;8410;52.532;13.336;2023-04-19T07:11:42;102084.41;;;7.59;74.32
16595;BME280;8410;52.532;13.336;2023-04-19T07:14:10;102088.41;;;7.91;73.33
16595;BME280;8410;52.532;13.336;2023-04-19T07:16:37;102097.13;;;7.95;72.64
16595;BME280;8410;52.532;13.336;2023-04-19T07:19:05;102088.91;;;8.02;71.24
16595;BME280;8410;52.532;13.336;2023-04-19T07:21:32;102080.50;;;8.06;70.53
16595;BME280;8410;52.532;13.336;2023-04-19T07:24:02;102046.47;;;11.63;93.32
16595;BME280;8410;52.532;13.336;2023-04-19T07:26:29;102079.16;;;9.60;69.28
16595;BME280;8410;52.532;13.336;2023-04-19T07:28:57;102061.75;;;9.09;72.10
16595;BME280;8410;52.532;13.336;2023-04-19T07:31:25;102074.47;;;8.64;70.20
16595;BME280;8410;52.532;13.336;2023-04-19T07:33:53;102074.66;;;8.48;68.84
16595;BME280;8410;52.532;13.336;2023-04-19T07:36:21;102068.84;;;8.73;68.30
16595;BME280;8410;52.532;13.336;2023-04-19T07:38:49;102065.47;;;8.53;67.65
16595;BME280;8410;52.532;13.336;2023-04-19T07:41:17;102063.03;;;8.77;67.46
16595;BME280;8410;52.532;13.336;2023-04-19T07:43:45;102049.72;;;8.87;66.58
16595;BME280;8410;52.532;13.336;2023-04-19T07:46:13;102059.56;;;8.97;66.61
16595;BME280;8410;52.532;13.336;2023-04-19T07:48:42;102049.16;;;9.15;66.23
16595;BME280;8410;52.532;13.336;2023-04-19T07:51:10;102045.53;;;9.10;65.41
16595;BME280;8410;52.532;13.336;2023-04-19T07:53:38;102039.63;;;9.13;64.78
16595;BME280;8410;52.532;13.336;2023-04-19T07:56:07;102034.38;;;9.32;64.34
16595;BME280;8410;52.532;13.336;2023-04-19T07:58:39;102059.31;;;9.12;65.32
16595;BME280;8410;52.532;13.336;2023-04-19T08:01:09;102037.06;;;9.35;63.87
16595;BME280;8410;52.532;13.336;2023-04-19T08:03:36;102039.22;;;9.02;64.26
16595;BME280;8410;52.532;13.336;2023-04-19T08:06:05;102048.00;;;9.09;63.98
16595;BME280;8410;52.532;13.336;2023-04-19T08:08:33;102025.16;;;9.37;63.66
16595;BME280;8410;52.532;13.336;2023-04-19T08:11:01;102026.63;;;9.31;64.32
16595;BME280;8410;52.532;13.336;2023-04-19T08:13:29;102020.22;;;9.43;62.52
16595;BME280;8410;52.532;13.336;2023-04-19T08:15:58;102003.44;;;9.52;63.15
16595;BME280;8410;52.532;13.336;2023-04-19T08:18:45;102021.69;;;9.83;61.77
16595;BME280;8410;52.532;13.336;2023-04-19T08:21:16;102012.19;;;9.81;60.68
16595;BME280;8410;52.532;13.336;2023-04-19T08:23:47;101999.56;;;10.12;61.08
16595;BME280;8410;52.532;13.336;2023-04-19T08:26:18;101989.31;;;9.88;59.57
16595;BME280;8410;52.532;13.336;2023-04-19T08:28:45;102008.91;;;10.09;59.35
16595;BME280;8410;52.532;13.336;2023-04-19T08:31:14;101997.72;;;10.32;58.13
16595;BME280;8410;52.532;13.336;2023-04-19T08:33:42;101996.47;;;10.47;58.56
16595;BME280;8410;52.532;13.336;2023-04-19T08:36:09;102004.81;;;10.40;57.90
16595;BME280;8410;52.532;13.336;2023-04-19T08:38:39;102015.44;;;10.25;57.97
16595;BME280;8410;52.532;13.336;2023-04-19T08:41:11;102009.97;;;10.40;58.57
16595;BME280;8410;52.532;13.336;2023-04-19T08:43:42;101990.06;;;10.10;59.12
16595;BME280;8410;52.532;13.336;2023-04-19T08:46:10;102017.94;;;10.23;58.21
16595;BME280;8410;52.532;13.336;2023-04-19T08:48:39;101991.84;;;10.62;58.36
16595;BME280;8410;52.532;13.336;2023-04-19T08:51:08;101990.75;;;10.55;57.75
16595;BME280;8410;52.532;13.336;2023-04-19T08:53:36;101995.19;;;10.34;58.24
16595;BME280;8410;52.532;13.336;2023-04-19T08:56:06;101991.03;;;10.37;58.57
16595;BME280;8410;52.532;13.336;2023-04-19T08:58:49;101975.78;;;10.71;58.08
16595;BME280;8410;52.532;13.336;2023-04-19T09:01:36;101975.75;;;10.69;57.83
16595;BME280;8410;52.532;13.336;2023-04-19T09:04:06;101983.38;;;10.66;57.98
16595;BME280;8410;52.532;13.336;2023-04-19T09:06:37;101979.38;;;10.49;58.07
16595;BME280;8410;52.532;13.336;2023-04-19T09:09:16;101972.78;;;10.57;58.00
16595;BME280;8410;52.532;13.336;2023-04-19T09:11:47;101965.69;;;10.50;57.99
16595;BME280;8410;52.532;13.336;2023-04-19T09:14:16;101973.06;;;10.66;57.45
16595;BME280;8410;52.532;13.336;2023-04-19T09:16:44;101959.38;;;10.40;57.67
16595;BME280;8410;52.532;13.336;2023-04-19T09:19:13;101964.44;;;10.64;57.30
16595;BME280;8410;52.532;13.336;2023-04-19T09:21:50;101938.69;;;10.93;56.32
16595;BME280;8410;52.532;13.336;2023-04-19T09:24:36;101949.56;;;10.82;56.05
16595;BME280;8410;52.532;13.336;2023-04-19T09:27:28;101971.31;;;10.65;56.64
16595;BME280;8410;52.532;13.336;2023-04-19T09:29:58;101939.81;;;10.74;56.46
16595;BME280;8410;52.532;13.336;2023-04-19T09:32:26;101947.53;;;10.72;55.08
16595;BME280;8410;52.532;13.336;2023-04-19T09:34:57;101938.78;;;10.67;55.46
16595;BME280;8410;52.532;13.336;2023-04-19T09:37:25;101927.91;;;10.49;55.74
16595;BME280;8410;52.532;13.336;2023-04-19T09:40:23;101931.72;;;10.89;56.34
16595;BME280;8410;52.532;13.336;2023-04-19T09:42:51;101917.34;;;10.97;56.11
16595;BME280;8410;52.532;13.336;2023-04-19T09:45:21;101931.59;;;11.14;54.65
16595;BME280;8410;52.532;13.336;2023-04-19T09:48:02;101922.88;;;11.39;55.17
16595;BME280;8410;52.532;13.336;2023-04-19T09:50:32;101918.59;;;11.40;53.99
16595;BME280;8410;52.532;13.336;2023-04-19T09:53:20;101911.56;;;11.66;53.68
16595;BME280;8410;52.532;13.336;2023-04-19T09:55:48;101911.34;;;10.98;55.63
16595;BME280;8410;52.532;13.336;2023-04-19T09:58:26;101906.34;;;11.33;54.89
16595;BME280;8410;52.532;13.336;2023-04-19T10:01:03;101920.25;;;11.38;54.43
16595;BME280;8410;52.532;13.336;2023-04-19T10:03:43;101915.69;;;10.99;55.03
16595;BME280;8410;52.532;13.336;2023-04-19T10:06:14;101893.94;;;11.19;55.34
16595;BME280;8410;52.532;13.336;2023-04-19T10:09:03;101889.94;;;11.29;54.46
16595;BME280;8410;52.532;13.336;2023-04-19T10:11:32;101870.50;;;11.42;53.58
16595;BME280;8410;52.532;13.336;2023-04-19T10:14:06;101903.69;;;11.61;53.97
16595;BME280;8410;52.532;13.336;2023-04-19T10:16:35;101895.63;;;11.49;54.86
16595;BME280;8410;52.532;13.336;2023-04-19T10:19:06;101870.75;;;11.51;54.26
16595;BME280;8410;52.532;13.336;2023-04-19T10:21:37;101864.16;;;11.94;54.17
16595;BME280;8410;52.532;13.336;2023-04-19T10:24:07;101872.31;;;11.46;54.28
16595;BME280;8410;52.532;13.336;2023-04-19T10:27:04;101865.38;;;12.08;54.01
16595;BME280;8410;52.532;13.336;2023-04-19T10:29:54;101862.25;;;12.22;53.11
16595;BME280;8410;52.532;13.336;2023-04-19T10:32:22;101892.59;;;11.97;52.18
16595;BME280;8410;52.532;13.336;2023-04-19T10:34:51;101862.34;;;11.58;53.25
16595;BME280;8410;52.532;13.336;2023-04-19T10:37:25;101890.22;;;11.40;53.84
16595;BME280;8410;52.532;13.336;2023-04-19T10:39:52;101879.47;;;11.24;54.27
16595;BME280;8410;52.532;13.336;2023-04-19T10:42:19;101868.16;;;11.51;54.29
16595;BME280;8410;52.532;13.336;2023-04-19T10:47:50;101865.75;;;11.57;53.62
16595;BME280;8410;52.532;13.336;2023-04-19T10:50:18;101884.78;;;11.62;53.59
16595;BME280;8410;52.532;13.336;2023-04-19T10:52:47;101861.63;;;11.64;53.67
16595;BME280;8410;52.532;13.336;2023-04-19T10:55:14;101866.25;;;12.09;53.03
16595;BME280;8410;52.532;13.336;2023-04-19T10:58:00;101871.00;;;11.60;53.20
16595;BME280;8410;52.532;13.336;2023-04-19T11:00:28;101854.94;;;12.05;53.84
16595;BME280;8410;52.532;13.336;2023-04-19T11:02:57;101880.00;;;12.09;53.48
16595;BME280;8410;52.532;13.336;2023-04-19T11:05:24;101864.13;;;11.93;52.61
16595;BME280;8410;52.532;13.336;2023-04-19T11:07:53;101839.59;;;12.48;52.71
16595;BME280;8410;52.532;13.336;2023-04-19T11:10:29;101846.94;;;12.69;51.79
16595;BME280;8410;52.532;13.336;2023-04-19T11:12:57;101854.38;;;12.17;53.21
16595;BME280;8410;52.532;13.336;2023-04-19T11:15:25;101830.91;;;12.06;53.61
16595;BME280;8410;52.532;13.336;2023-04-19T11:17:52;101854.50;;;12.60;52.51
16595;BME280;8410;52.532;13.336;2023-04-19T11:20:37;101842.09;;;12.43;52.86
16595;BME280;8410;52.532;13.336;2023-04-19T11:23:14;101830.53;;;12.67;52.50
16595;BME280;8410;52.532;13.336;2023-04-19T11:25:43;101836.44;;;12.22;53.33
16595;BME280;8410;52.532;13.336;2023-04-19T11:28:14;101823.97;;;12.42;53.68
16595;BME280;8410;52.532;13.336;2023-04-19T11:30:42;101853.94;;;11.65;53.97
16595;BME280;8410;52.532;13.336;2023-04-19T11:33:11;101838.28;;;11.59;55.11
16595;BME280;8410;52.532;13.336;2023-04-19T11:35:39;101831.81;;;11.74;54.18
16595;BME280;8410;52.532;13.336;2023-04-19T11:38:11;101846.63;;;11.82;54.69
16595;BME280;8410;52.532;13.336;2023-04-19T11:40:39;101827.34;;;12.01;52.79
16595;BME280;8410;52.532;13.336;2023-04-19T11:43:07;101836.28;;;12.16;54.21
16595;BME280;8410;52.532;13.336;2023-04-19T11:45:35;101822.63;;;12.20;54.07
16595;BME280;8410;52.532;13.336;2023-04-19T11:48:06;101837.59;;;11.98;53.59
16595;BME280;8410;52.532;13.336;2023-04-19T11:50:40;101811.16;;;11.74;54.74
16595;BME280;8410;52.532;13.336;2023-04-19T11:53:14;101814.66;;;12.48;53.90
16595;BME280;8410;52.532;13.336;2023-04-19T11:55:43;101813.53;;;11.99;53.75
16595;BME280;8410;52.532;13.336;2023-04-19T11:58:22;101812.06;;;12.10;52.35
16595;BME280;8410;52.532;13.336;2023-04-19T12:00:50;101816.47;;;11.80;52.65
16595;BME280;8410;52.532;13.336;2023-04-19T12:03:20;101814.19;;;11.92;52.58
16595;BME280;8410;52.532;13.336;2023-04-19T12:05:53;101815.03;;;11.91;53.09
16595;BME280;8410;52.532;13.336;2023-04-19T12:08:36;101796.31;;;11.98;52.59
16595;BME280;8410;52.532;13.336;2023-04-19T12:11:05;101793.50;;;12.27;52.89
16595;BME280;8410;52.532;13.336;2023-04-19T12:13:33;101804.66;;;11.88;52.16
16595;BME280;8410;52.532;13.336;2023-04-19T12:16:01;101799.50;;;11.88;52.51
16595;BME280;8410;52.532;13.336;2023-04-19T12:18:42;101788.50;;;11.97;53.24
16595;BME280;8410;52.532;13.336;2023-04-19T12:21:11;101780.16;;;12.46;51.86
16595;BME280;8410;52.532;13.336;2023-04-19T12:23:52;101773.03;;;12.75;52.94
16595;BME280;8410;52.532;13.336;2023-04-19T12:26:20;101767.44;;;12.54;51.97
16595;BME280;8410;52.532;13.336;2023-04-19T12:28:47;101770.31;;;12.28;52.74
16595;BME280;8410;52.532;13.336;2023-04-19T12:31:15;101790.38;;;12.02;51.71
16595;BME280;8410;52.532;13.336;2023-04-19T12:33:42;101776.84;;;12.12;52.35
16595;BME280;8410;52.532;13.336;2023-04-19T12:36:10;101772.91;;;11.92;52.95
16595;BME280;8410;52.532;13.336;2023-04-19T12:38:37;101757.66;;;12.01;52.53
16595;BME280;8410;52.532;13.336;2023-04-19T12:41:06;101757.44;;;12.30;52.32
16595;BME280;8410;52.532;13.336;2023-04-19T12:43:34;101758.06;;;12.20;54.22
16595;BME280;8410;52.532;13.336;2023-04-19T12:46:01;101752.72;;;11.76;55.97
16595;BME280;8410;52.532;13.336;2023-04-19T12:48:29;101772.53;;;11.77;55.96
16595;BME280;8410;52.532;13.336;2023-04-19T12:50:56;101759.47;;;11.70;54.86
16595;BME280;8410;52.532;13.336;2023-04-19T12:53:24;101755.22;;;11.73;54.60
16595;BME280;8410;52.532;13.336;2023-04-19T12:55:51;101740.97;;;12.25;53.70
16595;BME280;8410;52.532;13.336;2023-04-19T12:58:20;101733.06;;;12.17;54.12
16595;BME280;8410;52.532;13.336;2023-04-19T13:00:48;101723.72;;;12.22;52.95
16595;BME280;8410;52.532;13.336;2023-04-19T13:03:15;101711.50;;;12.15;52.67
16595;BME280;8410;52.532;13.336;2023-04-19T13:05:43;101720.50;;;12.34;51.48
16595;BME280;8410;52.532;13.336;2023-04-19T13:08:10;101712.47;;;12.63;51.88
16595;BME280;8410;52.532;13.336;2023-04-19T13:10:38;101711.78;;;12.70;50.25
16595;BME280;8410;52.532;13.336;2023-04-19T13:13:05;101702.69;;;12.46;50.03